Walleye — V7GU7 — position and weather

sailwx.info

Track history (hours):
 
Tides and Currents Weather Stations Pressure Air Temp Water Temp Dewpoint Dewpoint Depression Visibility Wind Speed Wind Dir Waves Ship Positions

Walleye

Last reported at 2017-Oct-04 02:16 UTC. Time now 2017-Oct-19 22:10 UTC.
Position N 27°47' W 016°26'.
Warning: this ship's position is 15 days out of date.

Length 228 m; draft 12.5 m.

Type: Tanker. MMSI: 538005764.

Date/timePositionNaut miles runAvg speedWind from/ knotsBaromVisibWave heightAir tempDewpointWater temp
2017-Oct-04 02:16N 27°47' W 016°26'412.7
2017-Oct-04 01:58N 27°50' W 016°24'612.7
2017-Oct-04 01:30N 27°55' W 016°21'612.7
2017-Oct-04 01:00N 28°01' W 016°18'2013.3
2017-Oct-03 23:28N 28°18' W 016°05'612.9
2017-Oct-03 23:00N 28°22' W 016°01'612.7
2017-Oct-03 22:30N 28°27' W 015°56'612.9
2017-Oct-03 22:00N 28°32' W 015°51'612.8
2017-Oct-03 21:30N 28°37' W 015°46'612.7
2017-Oct-03 21:00N 28°41' W 015°41'612.7
2017-Oct-03 20:30N 28°46' W 015°36'612.7
2017-Oct-03 20:00N 28°50' W 015°31'612.9
2017-Oct-03 19:30N 28°55' W 015°25'612.9
2017-Oct-03 19:00N 28°59' W 015°20'713.1
2017-Oct-03 18:30N 29°04' W 015°15'713.3
2017-Oct-03 18:00N 29°08' W 015°09'713.6
2017-Oct-03 17:30N 29°13' W 015°03'713.6
2017-Oct-03 16:58N 29°18' W 014°57'1113.4
2017-Oct-03 16:10N 29°24' W 014°48'213.5
2017-Oct-03 16:00N 29°26' W 014°46'713.2
2017-Oct-03 15:30N 29°30' W 014°40'613.0
2017-Oct-03 15:00N 29°35' W 014°35'1413.3
2017-Oct-03 13:56N 29°45' W 014°23'1212.9
2017-Oct-03 13:01N 29°53' W 014°14'2010.2
2017-Oct-03 11:04N 30°06' W 013°56'9212.0
2017-Oct-03 03:27N 31°08' W 012°38'712.6
2017-Oct-03 02:52N 31°13' W 012°31'612.9
2017-Oct-03 02:26N 31°17' W 012°27'712.7
2017-Oct-03 01:51N 31°22' W 012°21'3012.6
2017-Oct-02 23:26N 31°42' W 011°54'612.7
2017-Oct-02 23:00N 31°46' W 011°49'612.6
2017-Oct-02 22:29N 31°50' W 011°43'812.4
2017-Oct-02 21:49N 31°56' W 011°36'412.6
2017-Oct-02 21:29N 31°59' W 011°33'4913.0
2017-Oct-02 17:41N 32°32' W 010°50'312.6
2017-Oct-02 17:29N 32°34' W 010°48'612.8
2017-Oct-02 17:00N 32°38' W 010°42'2012.8
2017-Oct-02 15:28N 32°52' W 010°25'1112.8
2017-Oct-02 14:35N 32°59' W 010°15'2512.5
2017-Oct-02 12:36N 33°16' W 009°54'112.6
2017-Oct-02 12:30N 33°17' W 009°52'2512.6
2017-Oct-02 10:33N 33°34' W 009°31'112.8
2017-Oct-02 10:27N 33°34' W 009°29'613.0
2017-Oct-02 09:58N 33°39' W 009°24'812.6
2017-Oct-02 09:18N 33°44' W 009°16'612.8
2017-Oct-02 08:49N 33°48' W 009°11'412.3
2017-Oct-02 08:27N 33°51' W 009°07'712.5
2017-Oct-02 07:53N 33°56' W 009°01'512.3
2017-Oct-02 07:30N 33°60' W 008°57'612.0
2017-Oct-02 07:00N 34°04' W 008°51'612.1
2017-Oct-02 06:30N 34°08' W 008°46'612.1
2017-Oct-02 05:58N 34°12' W 008°40'611.9
2017-Oct-02 05:29N 34°16' W 008°35'612.2
2017-Oct-02 04:59N 34°20' W 008°30'611.9
2017-Oct-02 04:30N 34°24' W 008°24'1512.1
2017-Oct-02 03:18N 34°34' W 008°11'412.1
2017-Oct-02 02:59N 34°37' W 008°08'1212.2
2017-Oct-02 02:00N 34°45' W 007°57'4512.2
2017-Oct-01 22:16N 35°16' W 007°17'312.0
2017-Oct-01 22:00N 35°18' W 007°14'612.1
2017-Oct-01 21:30N 35°22' W 007°08'1612.3
2017-Oct-01 20:12N 35°32' W 006°53'6611.0
2017-Oct-01 14:09N 35°58' W 005°38'1 9.7
2017-Oct-01 14:00N 35°58' W 005°36'510.0
2017-Oct-01 13:30N 35°60' W 005°30'5 9.7
2017-Oct-01 13:00N 36°02' W 005°25'2 3.3
2017-Oct-01 12:30N 36°03' W 005°24'0 1.0
2017-Oct-01 12:00N 36°03' W 005°24'0 0.5
2017-Oct-01 11:30N 36°03' W 005°23'1 1.1
2017-Oct-01 11:00N 36°04' W 005°24'2 3.0
2017-Oct-01 10:28N 36°05' W 005°23'2 4.5
2017-Oct-01 10:00N 36°07' W 005°23'1 1.1
2017-Oct-01 08:53N 36°08' W 005°23'0 0.0
2017-Oct-01 08:23N 36°08' W 005°23'0 0.1
2017-Oct-01 07:56N 36°08' W 005°23'0 0.0
2017-Oct-01 07:29N 36°08' W 005°23'0 0.2
2017-Oct-01 06:59N 36°08' W 005°23'0 0.1
2017-Oct-01 06:29N 36°08' W 005°23'0 0.1
2017-Oct-01 05:53N 36°08' W 005°23'0 0.1
2017-Oct-01 05:11N 36°08' W 005°23'0 0.0
2017-Oct-01 04:53N 36°08' W 005°23'0 0.1
2017-Oct-01 03:53N 36°08' W 005°23'0 0.0
2017-Oct-01 03:11N 36°08' W 005°23'0 0.0
2017-Oct-01 02:59N 36°08' W 005°23'  
2017-Sep-27 19:01N 36°48' E 013°24'012.7
2017-Sep-27 19:00N 36°48' E 013°24'712.6
2017-Sep-27 18:28N 36°45' E 013°31'712.4
2017-Sep-27 17:52N 36°42' E 013°40'512.1
2017-Sep-27 17:29N 36°40' E 013°45'612.1
2017-Sep-27 17:00N 36°37' E 013°52'612.1
2017-Sep-27 16:31N 36°35' E 013°59'612.1
2017-Sep-27 16:01N 36°32' E 014°05'612.1
2017-Sep-27 15:31N 36°30' E 014°12'612.0
2017-Sep-27 15:00N 36°27' E 014°19'611.9
2017-Sep-27 14:30N 36°25' E 014°26'611.8
2017-Sep-27 14:00N 36°23' E 014°33'612.1
2017-Sep-27 13:31N 36°21' E 014°40'612.1
2017-Sep-27 13:00N 36°20' E 014°47'612.6
2017-Sep-27 12:30N 36°20' E 014°55'44911.7
2017-Sep-25 22:14N 37°37' E 024°08'812.4
2017-Sep-25 21:33N 37°44' E 024°14'111.8
2017-Sep-25 21:31N 37°45' E 024°14'711.9
2017-Sep-25 20:55N 37°49' E 024°21'  
Track history (hours):
 
Tides and Currents Weather Stations Pressure Air Temp Water Temp Dewpoint Dewpoint Depression Visibility Wind Speed Wind Dir Waves Ship Positions

Walleye

Last reported at 2017-Oct-04 02:16 UTC. Time now 2017-Oct-19 22:10 UTC.
Position N 27°47' W 016°26'.
Warning: this ship's position is 15 days out of date.

Length 228 m; draft 12.5 m.

Type: Tanker. MMSI: 538005764.

Date/timePositionNaut miles runAvg speedWind from/ knotsBaromVisibWave heightAir tempDewpointWater temp
2017-Oct-04 02:16N 27°47' W 016°26'412.7
2017-Oct-04 01:58N 27°50' W 016°24'612.7
2017-Oct-04 01:30N 27°55' W 016°21'612.7
2017-Oct-04 01:00N 28°01' W 016°18'2013.3
2017-Oct-03 23:28N 28°18' W 016°05'612.9
2017-Oct-03 23:00N 28°22' W 016°01'612.7
2017-Oct-03 22:30N 28°27' W 015°56'612.9
2017-Oct-03 22:00N 28°32' W 015°51'612.8
2017-Oct-03 21:30N 28°37' W 015°46'612.7
2017-Oct-03 21:00N 28°41' W 015°41'612.7
2017-Oct-03 20:30N 28°46' W 015°36'612.7
2017-Oct-03 20:00N 28°50' W 015°31'612.9
2017-Oct-03 19:30N 28°55' W 015°25'612.9
2017-Oct-03 19:00N 28°59' W 015°20'713.1
2017-Oct-03 18:30N 29°04' W 015°15'713.3
2017-Oct-03 18:00N 29°08' W 015°09'713.6
2017-Oct-03 17:30N 29°13' W 015°03'713.6
2017-Oct-03 16:58N 29°18' W 014°57'1113.4
2017-Oct-03 16:10N 29°24' W 014°48'213.5
2017-Oct-03 16:00N 29°26' W 014°46'713.2
2017-Oct-03 15:30N 29°30' W 014°40'613.0
2017-Oct-03 15:00N 29°35' W 014°35'1413.3
2017-Oct-03 13:56N 29°45' W 014°23'1212.9
2017-Oct-03 13:01N 29°53' W 014°14'2010.2
2017-Oct-03 11:04N 30°06' W 013°56'9212.0
2017-Oct-03 03:27N 31°08' W 012°38'712.6
2017-Oct-03 02:52N 31°13' W 012°31'612.9
2017-Oct-03 02:26N 31°17' W 012°27'712.7
2017-Oct-03 01:51N 31°22' W 012°21'3012.6
2017-Oct-02 23:26N 31°42' W 011°54'612.7
2017-Oct-02 23:00N 31°46' W 011°49'612.6
2017-Oct-02 22:29N 31°50' W 011°43'812.4
2017-Oct-02 21:49N 31°56' W 011°36'412.6
2017-Oct-02 21:29N 31°59' W 011°33'4913.0
2017-Oct-02 17:41N 32°32' W 010°50'312.6
2017-Oct-02 17:29N 32°34' W 010°48'612.8
2017-Oct-02 17:00N 32°38' W 010°42'2012.8
2017-Oct-02 15:28N 32°52' W 010°25'1112.8
2017-Oct-02 14:35N 32°59' W 010°15'2512.5
2017-Oct-02 12:36N 33°16' W 009°54'112.6
2017-Oct-02 12:30N 33°17' W 009°52'2512.6
2017-Oct-02 10:33N 33°34' W 009°31'112.8
2017-Oct-02 10:27N 33°34' W 009°29'613.0
2017-Oct-02 09:58N 33°39' W 009°24'812.6
2017-Oct-02 09:18N 33°44' W 009°16'612.8
2017-Oct-02 08:49N 33°48' W 009°11'412.3
2017-Oct-02 08:27N 33°51' W 009°07'712.5
2017-Oct-02 07:53N 33°56' W 009°01'512.3
2017-Oct-02 07:30N 33°60' W 008°57'612.0
2017-Oct-02 07:00N 34°04' W 008°51'612.1
2017-Oct-02 06:30N 34°08' W 008°46'612.1
2017-Oct-02 05:58N 34°12' W 008°40'611.9
2017-Oct-02 05:29N 34°16' W 008°35'612.2
2017-Oct-02 04:59N 34°20' W 008°30'611.9
2017-Oct-02 04:30N 34°24' W 008°24'1512.1
2017-Oct-02 03:18N 34°34' W 008°11'412.1
2017-Oct-02 02:59N 34°37' W 008°08'1212.2
2017-Oct-02 02:00N 34°45' W 007°57'4512.2
2017-Oct-01 22:16N 35°16' W 007°17'312.0
2017-Oct-01 22:00N 35°18' W 007°14'612.1
2017-Oct-01 21:30N 35°22' W 007°08'1612.3
2017-Oct-01 20:12N 35°32' W 006°53'6611.0
2017-Oct-01 14:09N 35°58' W 005°38'1 9.7
2017-Oct-01 14:00N 35°58' W 005°36'510.0
2017-Oct-01 13:30N 35°60' W 005°30'5 9.7
2017-Oct-01 13:00N 36°02' W 005°25'2 3.3
2017-Oct-01 12:30N 36°03' W 005°24'0 1.0
2017-Oct-01 12:00N 36°03' W 005°24'0 0.5
2017-Oct-01 11:30N 36°03' W 005°23'1 1.1
2017-Oct-01 11:00N 36°04' W 005°24'2 3.0
2017-Oct-01 10:28N 36°05' W 005°23'2 4.5
2017-Oct-01 10:00N 36°07' W 005°23'1 1.1
2017-Oct-01 08:53N 36°08' W 005°23'0 0.0
2017-Oct-01 08:23N 36°08' W 005°23'0 0.1
2017-Oct-01 07:56N 36°08' W 005°23'0 0.0
2017-Oct-01 07:29N 36°08' W 005°23'0 0.2
2017-Oct-01 06:59N 36°08' W 005°23'0 0.1
2017-Oct-01 06:29N 36°08' W 005°23'0 0.1
2017-Oct-01 05:53N 36°08' W 005°23'0 0.1
2017-Oct-01 05:11N 36°08' W 005°23'0 0.0
2017-Oct-01 04:53N 36°08' W 005°23'0 0.1
2017-Oct-01 03:53N 36°08' W 005°23'0 0.0
2017-Oct-01 03:11N 36°08' W 005°23'0 0.0
2017-Oct-01 02:59N 36°08' W 005°23'  
2017-Sep-27 19:01N 36°48' E 013°24'012.7
2017-Sep-27 19:00N 36°48' E 013°24'712.6
2017-Sep-27 18:28N 36°45' E 013°31'712.4
2017-Sep-27 17:52N 36°42' E 013°40'512.1
2017-Sep-27 17:29N 36°40' E 013°45'612.1
2017-Sep-27 17:00N 36°37' E 013°52'612.1
2017-Sep-27 16:31N 36°35' E 013°59'612.1
2017-Sep-27 16:01N 36°32' E 014°05'612.1
2017-Sep-27 15:31N 36°30' E 014°12'612.0
2017-Sep-27 15:00N 36°27' E 014°19'611.9
2017-Sep-27 14:30N 36°25' E 014°26'611.8
2017-Sep-27 14:00N 36°23' E 014°33'612.1
2017-Sep-27 13:31N 36°21' E 014°40'612.1
2017-Sep-27 13:00N 36°20' E 014°47'612.6
2017-Sep-27 12:30N 36°20' E 014°55'44911.7
2017-Sep-25 22:14N 37°37' E 024°08'812.4
2017-Sep-25 21:33N 37°44' E 024°14'111.8
2017-Sep-25 21:31N 37°45' E 024°14'711.9
2017-Sep-25 20:55N 37°49' E 024°21'  

Dump ship's entire track history